createdAt,value
2023-05-24T00:01:59.756Z,6.83
2023-05-24T00:04:30.144Z,6.92
2023-05-24T00:06:57.010Z,7.02
2023-05-24T00:09:23.879Z,6.89
2023-05-24T00:11:50.491Z,6.88
2023-05-24T00:14:17.102Z,6.95
2023-05-24T00:16:43.758Z,7.05
2023-05-24T00:19:11.273Z,7.11
2023-05-24T00:21:38.374Z,7.03
2023-05-24T00:24:05.210Z,7.10
2023-05-24T00:26:33.279Z,7.07
2023-05-24T00:28:59.778Z,7.14
2023-05-24T00:31:26.306Z,6.92
2023-05-24T00:33:52.824Z,6.80
2023-05-24T00:36:19.476Z,6.67
2023-05-24T00:38:46.014Z,6.63
2023-05-24T00:41:12.618Z,6.43
2023-05-24T00:43:39.214Z,6.32
2023-05-24T00:46:18.010Z,6.25
2023-05-24T00:48:45.960Z,6.18
2023-05-24T00:51:14.536Z,6.19
2023-05-24T00:53:44.971Z,6.30
2023-05-24T00:56:22.030Z,6.32
2023-05-24T00:58:50.423Z,6.31
2023-05-24T01:01:17.088Z,6.42
2023-05-24T01:03:55.704Z,6.37
2023-05-24T01:06:23.378Z,6.38
2023-05-24T01:09:08.325Z,6.17
2023-05-24T01:11:59.413Z,6.15
2023-05-24T01:14:41.721Z,6.23
2023-05-24T01:17:51.777Z,6.00
2023-05-24T01:20:22.508Z,5.90
2023-05-24T01:23:07.227Z,5.68
2023-05-24T01:25:49.731Z,5.73
2023-05-24T01:28:27.599Z,5.84
2023-05-24T01:31:04.259Z,5.87
2023-05-24T01:33:31.053Z,5.89
2023-05-24T01:35:57.599Z,5.80
2023-05-24T01:38:29.588Z,5.72
2023-05-24T01:41:13.437Z,5.42
2023-05-24T01:43:54.568Z,5.52
2023-05-24T01:46:37.776Z,5.57
2023-05-24T01:49:30.805Z,5.61
2023-05-24T01:52:14.412Z,5.58
2023-05-24T01:54:47.686Z,5.54
2023-05-24T01:57:15.388Z,5.54
2023-05-24T01:59:45.351Z,5.47
2023-05-24T02:02:12.683Z,5.42
2023-05-24T02:04:40.109Z,5.41
2023-05-24T02:07:22.221Z,5.40
2023-05-24T02:09:48.773Z,5.05
2023-05-24T02:12:15.296Z,5.09
2023-05-24T02:14:53.296Z,4.99
2023-05-24T02:17:26.908Z,4.96
2023-05-24T02:19:53.633Z,5.04
2023-05-24T02:22:22.266Z,5.09
2023-05-24T02:24:48.899Z,5.17
2023-05-24T02:27:15.436Z,5.17
2023-05-24T02:29:42.118Z,5.23
2023-05-24T02:32:08.824Z,5.16
2023-05-24T02:34:35.650Z,5.10
2023-05-24T02:37:07.205Z,5.04
2023-05-24T02:39:33.784Z,5.02
2023-05-24T02:42:00.521Z,5.12
2023-05-24T02:44:27.040Z,5.17
2023-05-24T02:46:53.577Z,5.18
2023-05-24T02:49:20.090Z,5.25
2023-05-24T02:51:46.614Z,5.25
2023-05-24T02:54:13.158Z,5.27
2023-05-24T02:56:39.821Z,5.13
2023-05-24T02:59:06.447Z,4.98
2023-05-24T03:01:34.376Z,4.81
2023-05-24T03:04:01.088Z,4.61
2023-05-24T03:06:27.763Z,4.51
2023-05-24T03:08:54.445Z,4.56
2023-05-24T03:11:24.068Z,4.67
2023-05-24T03:13:52.903Z,4.69
2023-05-24T03:16:19.873Z,4.78
2023-05-24T03:18:46.795Z,4.71
2023-05-24T03:21:13.366Z,4.64
2023-05-24T03:23:39.950Z,4.59
2023-05-24T03:26:07.327Z,4.69
2023-05-24T03:28:33.880Z,4.95
2023-05-24T03:31:00.909Z,4.97
2023-05-24T03:33:27.425Z,5.02
2023-05-24T03:35:53.966Z,5.25
2023-05-24T03:38:20.523Z,5.44
2023-05-24T03:40:47.004Z,5.53
2023-05-24T03:43:28.180Z,5.66
2023-05-24T03:45:56.280Z,5.74
2023-05-24T03:48:28.119Z,5.66
2023-05-24T03:50:54.649Z,5.69
2023-05-24T03:53:30.638Z,5.78
2023-05-24T03:55:57.123Z,5.78
2023-05-24T03:58:23.699Z,5.77
2023-05-24T04:00:50.818Z,5.88
2023-05-24T04:03:20.041Z,6.03
2023-05-24T04:05:47.384Z,6.19
2023-05-24T04:08:15.025Z,6.35
2023-05-24T04:10:42.202Z,6.48
2023-05-24T04:13:09.249Z,6.61
2023-05-24T04:15:36.091Z,6.62
2023-05-24T04:18:03.672Z,6.65
2023-05-24T04:20:30.378Z,6.70
2023-05-24T04:22:57.059Z,6.69
2023-05-24T04:25:23.795Z,6.78
2023-05-24T04:27:50.454Z,6.85
2023-05-24T04:30:21.259Z,6.95
2023-05-24T04:32:48.477Z,7.02
2023-05-24T04:35:20.648Z,7.05
2023-05-24T04:37:48.341Z,7.09
2023-05-24T04:40:16.317Z,7.06
2023-05-24T04:42:43.195Z,7.13
2023-05-24T04:45:18.702Z,7.09
2023-05-24T04:47:45.318Z,7.23
2023-05-24T04:50:15.090Z,7.29
2023-05-24T04:52:41.781Z,7.26
2023-05-24T04:55:08.831Z,7.28
2023-05-24T04:57:35.445Z,7.20
2023-05-24T05:00:02.111Z,7.40
2023-05-24T05:02:28.979Z,7.54
2023-05-24T05:04:55.537Z,7.60
2023-05-24T05:07:22.468Z,7.60
2023-05-24T05:09:49.050Z,7.64
2023-05-24T05:12:15.955Z,7.71
2023-05-24T05:14:44.978Z,7.82
2023-05-24T05:17:11.466Z,7.91
2023-05-24T05:19:43.958Z,7.99
2023-05-24T05:22:10.918Z,8.15
2023-05-24T05:24:39.820Z,8.27
2023-05-24T05:27:06.672Z,8.40
2023-05-24T05:29:33.216Z,8.54
2023-05-24T05:31:59.742Z,8.65
2023-05-24T05:34:26.284Z,8.70
2023-05-24T05:36:55.126Z,8.67
2023-05-24T05:39:21.665Z,8.73
2023-05-24T05:41:48.238Z,8.86
2023-05-24T05:44:15.008Z,8.98
2023-05-24T05:46:55.262Z,9.05
2023-05-24T05:49:21.745Z,8.89
2023-05-24T05:51:49.357Z,8.88
2023-05-24T05:54:18.279Z,8.89
2023-05-24T05:56:50.532Z,8.96
2023-05-24T05:59:17.427Z,9.12
2023-05-24T06:01:49.003Z,8.99
2023-05-24T06:04:16.376Z,8.96
2023-05-24T06:06:45.272Z,9.06
2023-05-24T06:09:12.098Z,9.01
2023-05-24T06:11:39.735Z,9.18
2023-05-24T06:14:07.037Z,9.31
2023-05-24T06:16:34.016Z,9.54
2023-05-24T06:19:06.090Z,9.72
2023-05-24T06:21:33.445Z,9.92
2023-05-24T06:24:02.411Z,9.92
2023-05-24T06:26:28.926Z,10.04
2023-05-24T06:28:56.186Z,10.20
2023-05-24T06:31:22.925Z,10.35
2023-05-24T06:33:59.727Z,10.17
2023-05-24T06:36:30.010Z,10.13
2023-05-24T06:38:56.597Z,10.16
2023-05-24T06:41:27.048Z,10.28
2023-05-24T06:43:53.687Z,9.98
2023-05-24T06:46:23.305Z,9.61
2023-05-24T06:48:49.929Z,9.69
2023-05-24T06:51:17.117Z,9.81
2023-05-24T06:53:43.613Z,9.80
2023-05-24T06:56:10.174Z,9.86
2023-05-24T06:58:36.731Z,10.04
2023-05-24T07:01:05.044Z,10.32
2023-05-24T07:03:32.409Z,10.61
2023-05-24T07:05:59.157Z,11.05
2023-05-24T07:08:25.729Z,10.89
2023-05-24T07:10:57.067Z,11.05
2023-05-24T07:13:28.464Z,11.02
2023-05-24T07:15:54.992Z,10.95
2023-05-24T07:18:21.583Z,11.04
2023-05-24T07:20:48.233Z,11.20
2023-05-24T07:23:18.152Z,11.20
2023-05-24T07:25:44.693Z,11.35
2023-05-24T07:28:11.511Z,11.42
2023-05-24T07:30:39.341Z,11.45
2023-05-24T07:33:05.956Z,11.52
2023-05-24T07:35:33.918Z,11.76
2023-05-24T07:38:26.956Z,11.91
2023-05-24T07:40:56.155Z,11.99
2023-05-24T07:43:22.713Z,12.00
2023-05-24T07:45:55.687Z,11.97
2023-05-24T07:48:24.108Z,12.04
2023-05-24T07:51:09.079Z,12.35
2023-05-24T07:53:37.596Z,12.43
2023-05-24T07:56:04.434Z,12.91
2023-05-24T07:58:31.703Z,12.84
2023-05-24T08:00:58.293Z,12.84
2023-05-24T08:03:25.939Z,13.08
2023-05-24T08:05:53.463Z,12.93
2023-05-24T08:08:20.335Z,12.92
2023-05-24T08:10:46.899Z,12.87
2023-05-24T08:13:13.462Z,12.86
2023-05-24T08:15:40.125Z,12.64
2023-05-24T08:18:11.596Z,12.56
2023-05-24T08:20:41.091Z,12.49
2023-05-24T08:23:08.097Z,12.52
2023-05-24T08:25:34.593Z,12.48
2023-05-24T08:28:01.298Z,12.35
2023-05-24T08:30:27.950Z,12.15
2023-05-24T08:32:54.572Z,12.10
2023-05-24T08:35:22.126Z,12.09
2023-05-24T08:37:49.566Z,11.98
2023-05-24T08:40:16.701Z,11.90
2023-05-24T08:42:45.108Z,12.31
2023-05-24T08:45:13.900Z,12.78
2023-05-24T08:47:41.034Z,13.30
2023-05-24T08:50:08.699Z,13.67
2023-05-24T08:52:36.671Z,13.89
2023-05-24T08:55:07.375Z,14.03
2023-05-24T08:57:35.725Z,13.69
2023-05-24T09:00:02.358Z,13.63
2023-05-24T09:02:30.931Z,13.99
2023-05-24T09:04:59.496Z,14.05
2023-05-24T09:07:26.860Z,14.35
2023-05-24T09:10:06.740Z,14.30
2023-05-24T09:12:38.588Z,14.61
2023-05-24T09:15:17.472Z,14.41
2023-05-24T09:17:44.346Z,14.33
2023-05-24T09:20:13.309Z,14.17
2023-05-24T09:22:43.032Z,14.07
2023-05-24T09:25:14.104Z,14.00
2023-05-24T09:27:41.459Z,14.06
2023-05-24T09:30:12.420Z,14.25
2023-05-24T09:32:39.270Z,14.20
2023-05-24T09:35:09.968Z,14.14
2023-05-24T09:37:38.755Z,14.17
2023-05-24T09:40:10.908Z,14.23
2023-05-24T09:42:38.057Z,14.32
2023-05-24T09:45:12.132Z,14.49
2023-05-24T09:47:54.854Z,14.63
2023-05-24T09:50:21.643Z,14.86
2023-05-24T09:52:48.286Z,15.11
2023-05-24T09:55:16.266Z,15.06
2023-05-24T09:58:04.457Z,15.00
2023-05-24T10:00:41.290Z,15.20
2023-05-24T10:03:15.094Z,15.35
2023-05-24T10:05:46.666Z,15.28
2023-05-24T10:08:14.560Z,15.48
2023-05-24T10:10:43.365Z,15.08
2023-05-24T10:13:11.550Z,14.80
2023-05-24T10:15:38.473Z,15.00
2023-05-24T10:18:10.623Z,14.73
2023-05-24T10:20:41.084Z,14.76
2023-05-24T10:23:12.934Z,14.99
2023-05-24T10:25:51.077Z,15.14
2023-05-24T10:28:21.457Z,15.05
2023-05-24T10:31:03.199Z,15.11
2023-05-24T10:33:34.542Z,14.88
2023-05-24T10:36:03.937Z,15.03
2023-05-24T10:38:33.903Z,15.48
2023-05-24T10:41:00.690Z,15.33
2023-05-24T10:43:27.410Z,15.18
2023-05-24T10:45:54.003Z,15.39
2023-05-24T10:48:26.270Z,15.68
2023-05-24T10:50:53.037Z,15.66
2023-05-24T10:53:27.286Z,15.77
2023-05-24T10:56:01.062Z,15.69
2023-05-24T10:58:58.844Z,15.53
2023-05-24T11:01:33.557Z,15.70
2023-05-24T11:04:18.185Z,15.84
2023-05-24T11:07:01.561Z,15.91
2023-05-24T11:09:28.263Z,15.86
2023-05-24T11:12:00.693Z,16.02
2023-05-24T11:14:29.363Z,16.46
2023-05-24T11:16:57.855Z,16.66
2023-05-24T11:19:32.804Z,16.70
2023-05-24T11:22:00.956Z,16.61
2023-05-24T11:24:34.218Z,16.56
2023-05-24T11:27:05.309Z,16.64
2023-05-24T11:29:31.933Z,16.47
2023-05-24T11:32:07.873Z,16.48
2023-05-24T11:34:35.224Z,16.32
2023-05-24T11:37:03.223Z,16.14
2023-05-24T11:39:35.466Z,15.92
2023-05-24T11:42:06.569Z,15.96
2023-05-24T11:44:34.202Z,16.20
2023-05-24T11:47:07.368Z,16.42
2023-05-24T11:49:34.716Z,16.84
2023-05-24T11:52:02.639Z,17.02
2023-05-24T11:54:30.191Z,17.03
2023-05-24T11:56:57.300Z,16.64
2023-05-24T11:59:30.974Z,16.43
2023-05-24T12:02:04.403Z,16.35
2023-05-24T12:04:33.139Z,16.15
2023-05-24T12:07:00.463Z,15.85
2023-05-24T12:09:27.930Z,15.62
2023-05-24T12:11:55.310Z,15.40
2023-05-24T12:14:32.872Z,15.07
2023-05-24T12:17:00.947Z,15.01
2023-05-24T12:19:38.839Z,14.80
2023-05-24T12:22:12.712Z,14.70
2023-05-24T12:24:39.244Z,14.88
2023-05-24T12:27:13.929Z,15.38
2023-05-24T12:29:46.830Z,15.25
2023-05-24T12:32:14.667Z,15.39
2023-05-24T12:34:43.706Z,15.57
2023-05-24T12:37:21.254Z,15.59
2023-05-24T12:39:51.240Z,15.57
2023-05-24T12:42:19.502Z,15.37
2023-05-24T12:44:46.052Z,15.33
2023-05-24T12:47:12.818Z,15.21
2023-05-24T12:49:45.126Z,14.97
2023-05-24T12:52:12.608Z,14.96
2023-05-24T12:54:42.005Z,14.82
2023-05-24T12:57:09.103Z,14.80
2023-05-24T12:59:35.667Z,14.63
2023-05-24T13:02:02.510Z,14.73
2023-05-24T13:04:31.506Z,14.72
2023-05-24T13:06:58.030Z,14.42
2023-05-24T13:09:25.951Z,14.30
2023-05-24T13:11:54.087Z,14.63
2023-05-24T13:14:21.325Z,14.84
2023-05-24T13:17:02.376Z,14.96
2023-05-24T13:19:29.487Z,15.17
2023-05-24T13:21:56.064Z,15.30
2023-05-24T13:24:23.177Z,15.52
2023-05-24T13:26:52.256Z,15.76
2023-05-24T13:29:34.101Z,15.95
2023-05-24T13:32:03.637Z,16.08
2023-05-24T13:34:41.508Z,15.67
2023-05-24T13:37:08.764Z,15.74
2023-05-24T13:39:35.526Z,15.55
2023-05-24T13:42:02.592Z,15.52
2023-05-24T13:44:29.453Z,15.87
2023-05-24T13:46:56.568Z,16.15
2023-05-24T13:49:23.205Z,16.41
2023-05-24T13:51:50.477Z,16.41
2023-05-24T13:54:17.521Z,16.64
2023-05-24T13:56:44.846Z,16.79
2023-05-24T13:59:11.975Z,16.72
2023-05-24T14:01:39.139Z,16.78
2023-05-24T14:04:07.014Z,17.11
2023-05-24T14:06:48.784Z,16.50
2023-05-24T14:09:15.566Z,16.46
2023-05-24T14:11:42.121Z,16.48
2023-05-24T14:16:38.128Z,16.77
2023-05-24T14:19:04.703Z,16.72
2023-05-24T14:21:32.307Z,16.70
2023-05-24T14:23:58.960Z,16.88
2023-05-24T14:26:25.528Z,16.73
2023-05-24T14:28:55.257Z,16.80
2023-05-24T14:31:25.878Z,16.77
2023-05-24T14:33:52.509Z,16.71
2023-05-24T14:36:19.243Z,16.72
2023-05-24T14:38:46.170Z,16.74
2023-05-24T14:41:12.813Z,16.96
2023-05-24T14:43:40.297Z,16.95
2023-05-24T14:46:06.860Z,16.91
2023-05-24T14:48:33.393Z,16.86
2023-05-24T14:50:59.969Z,16.86
2023-05-24T14:53:26.585Z,16.65
2023-05-24T14:55:54.299Z,16.52
2023-05-24T14:58:21.082Z,16.59
2023-05-24T15:00:47.985Z,16.59
2023-05-24T15:03:14.985Z,16.29
2023-05-24T15:05:42.779Z,16.37
2023-05-24T15:08:13.694Z,16.37
2023-05-24T15:10:40.591Z,16.32
2023-05-24T15:13:08.046Z,16.17
2023-05-24T15:15:34.551Z,16.24
2023-05-24T15:18:01.231Z,16.26
2023-05-24T15:20:28.040Z,16.16
2023-05-24T15:22:54.870Z,16.07
2023-05-24T15:25:22.246Z,15.97
2023-05-24T15:27:48.864Z,15.90
2023-05-24T15:30:19.956Z,15.92
2023-05-24T15:32:46.826Z,15.55
2023-05-24T15:35:17.335Z,15.42
2023-05-24T15:37:43.917Z,15.59
2023-05-24T15:40:13.688Z,15.53
2023-05-24T15:42:40.274Z,15.68
2023-05-24T15:45:07.624Z,15.65
2023-05-24T15:47:39.477Z,15.38
2023-05-24T15:50:08.448Z,15.21
2023-05-24T15:52:36.023Z,14.68
2023-05-24T15:55:02.558Z,14.76
2023-05-24T15:57:29.077Z,14.79
2023-05-24T15:59:55.589Z,14.62
2023-05-24T16:02:22.383Z,14.52
2023-05-24T16:04:49.974Z,14.56
2023-05-24T16:07:18.066Z,14.36
2023-05-24T16:09:46.758Z,14.46
2023-05-24T16:12:13.338Z,14.56
2023-05-24T16:14:39.891Z,14.32
2023-05-24T16:17:06.661Z,14.43
2023-05-24T16:19:36.126Z,14.48
2023-05-24T16:22:03.085Z,14.38
2023-05-24T16:24:29.606Z,14.45
2023-05-24T16:26:57.322Z,14.54
2023-05-24T16:29:24.579Z,14.54
2023-05-24T16:31:51.086Z,14.67
2023-05-24T16:34:38.749Z,14.58
2023-05-24T16:37:11.632Z,14.54
2023-05-24T16:39:38.571Z,14.65
2023-05-24T16:42:07.043Z,14.69
2023-05-24T16:44:33.621Z,14.62
2023-05-24T16:47:00.153Z,14.57
2023-05-24T16:49:26.641Z,14.58
2023-05-24T16:51:53.177Z,14.55
2023-05-24T16:54:19.759Z,14.56
2023-05-24T16:56:46.300Z,14.45
2023-05-24T16:59:12.884Z,14.30
2023-05-24T17:01:40.109Z,14.38
2023-05-24T17:04:07.053Z,14.39
2023-05-24T17:06:33.659Z,14.29
2023-05-24T17:09:00.186Z,14.41
2023-05-24T17:11:26.668Z,14.52
2023-05-24T17:13:53.196Z,14.67
2023-05-24T17:16:20.597Z,15.17
2023-05-24T17:18:47.328Z,15.10
2023-05-24T17:21:14.036Z,15.01
2023-05-24T17:23:40.649Z,14.62
2023-05-24T17:26:11.349Z,14.47
2023-05-24T17:28:37.853Z,14.37
2023-05-24T17:31:04.540Z,14.25
2023-05-24T17:33:41.377Z,14.08
2023-05-24T17:36:09.449Z,14.05
2023-05-24T17:38:39.506Z,14.06
2023-05-24T17:41:09.645Z,13.99
2023-05-24T17:43:39.112Z,14.00
2023-05-24T17:46:08.309Z,14.24
2023-05-24T17:48:37.340Z,14.24
2023-05-24T17:51:07.443Z,14.40
2023-05-24T17:53:35.293Z,14.74
2023-05-24T17:56:03.168Z,14.60
2023-05-24T17:58:30.860Z,14.57
2023-05-24T18:00:58.660Z,14.57
2023-05-24T18:03:25.344Z,14.72
2023-05-24T18:05:51.881Z,14.86
2023-05-24T18:08:18.985Z,15.00
2023-05-24T18:10:45.806Z,14.80
2023-05-24T18:13:12.607Z,14.83
2023-05-24T18:15:39.121Z,14.92
2023-05-24T18:18:05.999Z,15.08
2023-05-24T18:20:32.695Z,15.13
2023-05-24T18:22:59.548Z,15.44
2023-05-24T18:25:34.569Z,15.19
2023-05-24T18:28:01.956Z,14.87
2023-05-24T18:30:28.656Z,14.56
2023-05-24T18:35:29.668Z,14.21
2023-05-24T18:38:01.964Z,14.05
2023-05-24T18:40:28.509Z,14.08
2023-05-24T18:42:55.086Z,14.10
2023-05-24T18:45:21.853Z,14.03
2023-05-24T18:47:48.390Z,13.90
2023-05-24T18:50:16.954Z,13.86
2023-05-24T18:52:46.344Z,13.98
2023-05-24T18:55:23.249Z,13.84
2023-05-24T18:57:55.050Z,13.97
2023-05-24T19:00:22.820Z,14.01
2023-05-24T19:02:49.840Z,13.88
2023-05-24T19:05:16.657Z,13.75
2023-05-24T19:07:43.285Z,13.54
2023-05-24T19:10:10.223Z,13.46
2023-05-24T19:12:36.805Z,13.48
2023-05-24T19:15:10.043Z,13.42
2023-05-24T19:17:36.640Z,13.37
2023-05-24T19:20:03.794Z,13.37
2023-05-24T19:22:33.320Z,13.29
2023-05-24T19:24:59.901Z,13.21
2023-05-24T19:27:36.273Z,13.23
2023-05-24T19:30:05.329Z,13.04
2023-05-24T19:32:31.886Z,12.73
2023-05-24T19:34:58.454Z,12.71
2023-05-24T19:37:24.985Z,12.58
2023-05-24T19:39:51.509Z,12.41
2023-05-24T19:42:18.153Z,12.34
2023-05-24T19:44:44.689Z,12.18
2023-05-24T19:47:11.235Z,12.11
2023-05-24T19:49:37.835Z,12.06
2023-05-24T19:52:07.067Z,12.09
2023-05-24T19:54:33.602Z,11.97
2023-05-24T19:57:01.684Z,11.90
2023-05-24T19:59:28.360Z,11.75
2023-05-24T20:01:54.988Z,11.55
2023-05-24T20:04:21.928Z,11.34
2023-05-24T20:06:48.459Z,11.19
2023-05-24T20:09:18.745Z,10.94
2023-05-24T20:11:51.333Z,10.78
2023-05-24T20:14:18.081Z,10.62
2023-05-24T20:16:44.727Z,10.63
2023-05-24T20:19:11.870Z,10.55
2023-05-24T20:21:38.394Z,10.45
2023-05-24T20:24:05.467Z,10.35
2023-05-24T20:26:33.326Z,10.19
2023-05-24T20:29:05.033Z,10.18
2023-05-24T20:31:31.665Z,10.00
2023-05-24T20:33:58.274Z,9.88
2023-05-24T20:36:30.586Z,9.97
2023-05-24T20:38:57.120Z,9.84
2023-05-24T20:41:23.888Z,9.66
2023-05-24T20:43:51.382Z,9.61
2023-05-24T20:46:18.148Z,9.65
2023-05-24T20:48:44.916Z,9.62
2023-05-24T20:51:11.403Z,9.44
2023-05-24T20:53:38.924Z,9.46
2023-05-24T20:56:05.650Z,9.57
2023-05-24T20:58:32.202Z,9.53
2023-05-24T21:00:59.212Z,9.45
2023-05-24T21:03:25.882Z,9.48
2023-05-24T21:05:52.448Z,9.35
2023-05-24T21:08:19.047Z,9.30
2023-05-24T21:10:48.199Z,9.26
2023-05-24T21:13:14.824Z,9.20
2023-05-24T21:15:43.758Z,9.15
2023-05-24T21:18:11.908Z,9.01
2023-05-24T21:20:38.642Z,8.93
2023-05-24T21:23:05.164Z,8.84
2023-05-24T21:25:43.506Z,8.77
2023-05-24T21:28:13.880Z,8.97
2023-05-24T21:30:40.391Z,8.96
2023-05-24T21:33:07.017Z,8.65
2023-05-24T21:35:33.602Z,8.71
2023-05-24T21:38:00.638Z,8.74
2023-05-24T21:40:27.166Z,8.77
2023-05-24T21:42:53.917Z,8.73
2023-05-24T21:45:20.480Z,8.62
2023-05-24T21:47:47.040Z,8.50
2023-05-24T21:50:13.585Z,8.45
2023-05-24T21:52:43.142Z,8.44
2023-05-24T21:55:10.088Z,8.35
2023-05-24T21:57:36.670Z,8.49
2023-05-24T22:00:04.113Z,8.58
2023-05-24T22:02:31.830Z,8.63
2023-05-24T22:04:58.414Z,8.71
2023-05-24T22:07:24.912Z,8.60
2023-05-24T22:12:32.933Z,8.61
2023-05-24T22:15:03.105Z,8.51
2023-05-24T22:17:32.744Z,8.42
2023-05-24T22:20:02.268Z,8.27
2023-05-24T22:22:29.797Z,8.17
2023-05-24T22:25:01.840Z,7.97
2023-05-24T22:27:29.577Z,7.89
2023-05-24T22:29:56.226Z,8.00
2023-05-24T22:32:29.483Z,7.98
2023-05-24T22:34:56.100Z,8.06
2023-05-24T22:37:22.633Z,8.18
2023-05-24T22:39:49.183Z,8.07
2023-05-24T22:42:15.953Z,8.05
2023-05-24T22:44:42.466Z,8.07
2023-05-24T22:47:11.914Z,8.06
2023-05-24T22:49:38.479Z,8.01
2023-05-24T22:52:06.939Z,7.78
2023-05-24T22:54:33.498Z,7.85
2023-05-24T22:57:00.040Z,7.96
2023-05-24T22:59:26.555Z,7.97
2023-05-24T23:01:53.181Z,8.00
2023-05-24T23:04:21.831Z,7.97
2023-05-24T23:06:52.855Z,7.44
2023-05-24T23:09:28.822Z,7.36
2023-05-24T23:11:58.535Z,7.38
2023-05-24T23:14:25.396Z,7.24
2023-05-24T23:16:51.955Z,6.98
2023-05-24T23:19:19.090Z,6.97
2023-05-24T23:21:45.957Z,7.04
2023-05-24T23:24:21.899Z,7.00
2023-05-24T23:26:48.541Z,7.07
2023-05-24T23:29:15.188Z,7.23
2023-05-24T23:31:48.117Z,7.32
2023-05-24T23:34:14.739Z,7.24
2023-05-24T23:36:45.718Z,7.24
2023-05-24T23:39:12.643Z,7.26
2023-05-24T23:41:39.233Z,7.27
2023-05-24T23:44:05.853Z,7.36
2023-05-24T23:46:39.902Z,7.48
2023-05-24T23:49:06.492Z,7.43
2023-05-24T23:51:33.466Z,7.35
2023-05-24T23:54:03.099Z,7.05
2023-05-24T23:56:29.604Z,7.16
2023-05-24T23:58:56.178Z,7.25
